createdAt,value
2018-04-09T00:02:17.893Z,16.00
2018-04-09T00:04:45.519Z,16.87
2018-04-09T00:07:13.887Z,18.47
2018-04-09T00:09:41.523Z,17.07
2018-04-09T00:12:09.114Z,16.63
2018-04-09T00:14:36.705Z,17.47
2018-04-09T00:17:04.344Z,17.07
2018-04-09T00:19:31.951Z,16.67
2018-04-09T00:21:59.657Z,17.20
2018-04-09T00:24:27.295Z,16.47
2018-04-09T00:26:54.900Z,17.03
2018-04-09T00:29:23.318Z,16.70
2018-04-09T00:31:50.977Z,18.23
2018-04-09T00:34:18.566Z,16.17
2018-04-09T00:36:46.175Z,15.80
2018-04-09T00:39:14.597Z,16.50
2018-04-09T00:41:42.218Z,15.90
2018-04-09T00:44:09.837Z,15.13
2018-04-09T00:46:37.413Z,16.60
2018-04-09T00:49:05.018Z,16.33
2018-04-09T00:51:32.634Z,16.87
2018-04-09T00:54:00.274Z,15.17
2018-04-09T00:56:28.066Z,15.53
2018-04-09T00:58:55.711Z,15.73
2018-04-09T01:01:23.303Z,15.13
2018-04-09T01:03:50.956Z,15.57
2018-04-09T01:06:18.596Z,16.03
2018-04-09T01:08:46.298Z,14.73
2018-04-09T01:11:14.659Z,15.97
2018-04-09T01:13:42.397Z,15.70
2018-04-09T01:16:10.786Z,16.50
2018-04-09T01:18:38.370Z,15.60
2018-04-09T01:21:05.975Z,15.30
2018-04-09T01:23:33.627Z,15.57
2018-04-09T01:26:01.289Z,16.13
2018-04-09T01:28:28.889Z,15.97
2018-04-09T01:30:56.517Z,15.97
2018-04-09T01:33:24.096Z,15.00
2018-04-09T01:35:51.845Z,15.30
2018-04-09T01:38:19.479Z,15.73
2018-04-09T01:40:47.886Z,15.40
2018-04-09T01:43:15.517Z,16.03
2018-04-09T01:45:43.142Z,16.23
2018-04-09T01:48:10.736Z,15.67
2018-04-09T01:50:38.687Z,14.67
2018-04-09T01:53:06.265Z,14.37
2018-04-09T01:55:33.850Z,15.87
2018-04-09T01:58:02.213Z,15.93
2018-04-09T02:00:29.819Z,14.03
2018-04-09T02:02:57.440Z,14.83
2018-04-09T02:05:25.836Z,16.90
2018-04-09T02:07:54.226Z,13.73
2018-04-09T02:10:21.871Z,15.27
2018-04-09T02:12:50.305Z,15.50
2018-04-09T02:15:17.908Z,14.47
2018-04-09T02:17:45.496Z,15.30
2018-04-09T02:20:13.105Z,15.10
2018-04-09T02:22:40.750Z,14.60
2018-04-09T02:25:08.376Z,16.30
2018-04-09T02:27:36.013Z,16.40
2018-04-09T02:30:03.684Z,14.97
2018-04-09T02:32:31.356Z,15.37
2018-04-09T02:34:58.969Z,14.30
2018-04-09T02:37:26.618Z,14.40
2018-04-09T02:39:55.051Z,14.30
2018-04-09T02:42:23.428Z,17.53
2018-04-09T02:44:51.047Z,17.13
2018-04-09T02:47:18.694Z,15.90
2018-04-09T02:49:46.316Z,17.00
2018-04-09T02:52:13.937Z,15.87
2018-04-09T02:54:41.594Z,16.93
2018-04-09T02:57:09.207Z,16.40
2018-04-09T02:59:37.618Z,15.00
2018-04-09T03:02:05.266Z,15.83
2018-04-09T03:04:32.899Z,15.23
2018-04-09T03:07:00.567Z,14.00
2018-04-09T03:09:28.212Z,14.47
2018-04-09T03:11:55.826Z,16.03
2018-04-09T03:14:23.480Z,16.57
2018-04-09T03:16:51.927Z,16.67
2018-04-09T03:19:19.548Z,16.17
2018-04-09T03:21:47.173Z,16.20
2018-04-09T03:24:15.565Z,15.50
2018-04-09T03:26:44.013Z,14.07
2018-04-09T03:29:11.638Z,16.30
2018-04-09T03:31:39.296Z,15.53
2018-04-09T03:34:06.918Z,13.67
2018-04-09T03:36:35.302Z,14.63
2018-04-09T03:39:03.740Z,13.17
2018-04-09T03:41:31.349Z,14.77
2018-04-09T03:43:58.989Z,13.03
2018-04-09T03:46:26.648Z,14.50
2018-04-09T03:48:54.237Z,13.53
2018-04-09T03:51:22.641Z,12.87
2018-04-09T03:53:50.253Z,12.20
2018-04-09T03:56:17.856Z,14.17
2018-04-09T03:58:45.601Z,13.23
2018-04-09T04:01:13.222Z,12.70
2018-04-09T04:03:40.824Z,13.53
2018-04-09T04:06:08.445Z,13.37
2018-04-09T04:08:36.044Z,13.30
2018-04-09T04:11:03.645Z,12.73
2018-04-09T04:13:31.266Z,13.77
2018-04-09T04:16:10.838Z,12.53
2018-04-09T04:18:50.203Z,12.93
2018-04-09T04:21:29.625Z,12.80
2018-04-09T04:23:57.218Z,12.27
2018-04-09T04:26:24.868Z,12.93
2018-04-09T04:28:52.516Z,12.57
2018-04-09T04:31:20.138Z,13.00
2018-04-09T04:33:47.806Z,12.63
2018-04-09T04:36:15.458Z,13.57
2018-04-09T04:38:43.851Z,14.17
2018-04-09T04:41:12.226Z,14.17
2018-04-09T04:43:41.144Z,15.73
2018-04-09T04:46:08.806Z,15.23
2018-04-09T04:48:36.477Z,16.73
2018-04-09T04:51:04.078Z,16.23
2018-04-09T04:53:31.728Z,15.93
2018-04-09T04:55:59.466Z,17.90
2018-04-09T04:58:27.087Z,16.23
2018-04-09T05:00:54.677Z,15.53
2018-04-09T05:03:22.274Z,15.17
2018-04-09T05:05:49.879Z,15.60
2018-04-09T05:08:18.253Z,14.50
2018-04-09T05:10:46.653Z,16.53
2018-04-09T05:13:15.399Z,16.80
2018-04-09T05:15:42.993Z,14.80
2018-04-09T05:18:10.743Z,14.57
2018-04-09T05:20:38.401Z,15.37
2018-04-09T05:23:06.010Z,15.73
2018-04-09T05:25:33.851Z,16.07
2018-04-09T05:28:02.198Z,16.60
2018-04-09T05:30:29.799Z,17.17
2018-04-09T05:32:57.445Z,17.27
2018-04-09T05:35:25.817Z,17.17
2018-04-09T05:37:53.442Z,16.33
2018-04-09T05:40:21.091Z,16.67
2018-04-09T05:42:48.678Z,17.77
2018-04-09T05:45:16.650Z,17.43
2018-04-09T05:47:44.314Z,17.23
2018-04-09T05:50:11.906Z,17.07
2018-04-09T05:52:39.507Z,15.60
2018-04-09T05:55:07.130Z,15.33
2018-04-09T05:57:34.708Z,16.60
2018-04-09T06:00:02.322Z,17.03
2018-04-09T06:02:29.979Z,15.33
2018-04-09T06:04:57.622Z,15.63
2018-04-09T06:07:26.155Z,14.33
2018-04-09T06:09:53.802Z,15.53
2018-04-09T06:12:21.422Z,15.53
2018-04-09T06:14:49.081Z,14.07
2018-04-09T06:17:16.926Z,14.57
2018-04-09T06:19:45.304Z,13.90
2018-04-09T06:22:13.705Z,14.20
2018-04-09T06:24:41.351Z,16.47
2018-04-09T06:27:09.716Z,18.93
2018-04-09T06:29:37.334Z,24.77
2018-04-09T06:32:04.986Z,23.80
2018-04-09T06:34:32.597Z,22.23
2018-04-09T06:37:00.201Z,17.53
2018-04-09T06:39:27.815Z,21.23
2018-04-09T06:41:55.471Z,19.50
2018-04-09T06:44:23.081Z,24.60
2018-04-09T06:46:50.735Z,27.70
2018-04-09T06:49:19.156Z,26.00
2018-04-09T06:51:46.759Z,26.00
2018-04-09T06:54:14.393Z,23.37
2018-04-09T06:56:42.030Z,25.33
2018-04-09T06:59:09.661Z,26.87
2018-04-09T07:01:37.250Z,24.87
2018-04-09T07:04:06.025Z,23.90
2018-04-09T07:06:33.670Z,24.07
2018-04-09T07:09:01.329Z,23.83
2018-04-09T07:11:28.958Z,22.27
2018-04-09T07:13:56.557Z,23.30
2018-04-09T07:16:24.248Z,20.37
2018-04-09T07:18:51.912Z,20.97
2018-04-09T07:21:19.549Z,21.77
2018-04-09T07:23:47.138Z,20.87
2018-04-09T07:26:14.754Z,21.07
2018-04-09T07:28:43.184Z,22.67
2018-04-09T07:31:10.837Z,22.40
2018-04-09T07:33:38.425Z,19.03
2018-04-09T07:36:06.005Z,18.87
2018-04-09T07:38:34.131Z,20.60
2018-04-09T07:41:01.784Z,22.83
2018-04-09T07:43:29.398Z,20.87
2018-04-09T07:45:57.081Z,26.20
2018-04-09T07:48:25.438Z,24.97
2018-04-09T07:50:53.850Z,23.53
2018-04-09T07:53:22.253Z,24.10
2018-04-09T07:55:49.847Z,24.30
2018-04-09T07:58:17.435Z,24.10
2018-04-09T08:00:45.367Z,24.63
2018-04-09T08:03:12.955Z,26.00
2018-04-09T08:05:40.599Z,23.87
2018-04-09T08:08:08.205Z,22.83
2018-04-09T08:10:36.619Z,25.37
2018-04-09T08:13:04.287Z,26.33
2018-04-09T08:15:32.100Z,27.43
2018-04-09T08:17:59.698Z,24.67
2018-04-09T08:20:27.316Z,28.37
2018-04-09T08:22:55.000Z,26.50
2018-04-09T08:25:22.606Z,28.27
2018-04-09T08:27:50.232Z,30.40
2018-04-09T08:30:17.841Z,30.10
2018-04-09T08:32:45.425Z,30.17
2018-04-09T08:35:13.055Z,31.33
2018-04-09T08:37:40.747Z,32.67
2018-04-09T08:40:08.397Z,31.00
2018-04-09T08:42:36.516Z,31.27
2018-04-09T08:45:04.177Z,32.17
2018-04-09T08:47:31.840Z,31.97
2018-04-09T08:50:00.251Z,33.50
2018-04-09T08:52:28.199Z,32.03
2018-04-09T08:54:55.781Z,32.17
2018-04-09T08:57:23.399Z,34.20
2018-04-09T08:59:51.047Z,34.90
2018-04-09T09:02:18.718Z,35.07
2018-04-09T09:04:46.371Z,35.70
2018-04-09T09:07:14.024Z,31.17
2018-04-09T09:09:41.795Z,34.80
2018-04-09T09:12:09.405Z,35.07
2018-04-09T09:14:37.014Z,35.43
2018-04-09T09:17:04.626Z,37.60
2018-04-09T09:19:32.239Z,36.13
2018-04-09T09:21:59.855Z,37.30
2018-04-09T09:24:27.461Z,33.80
2018-04-09T09:26:55.245Z,35.50
2018-04-09T09:29:22.856Z,38.17
2018-04-09T09:31:50.449Z,34.27
2018-04-09T09:34:18.066Z,37.10
2018-04-09T09:36:45.709Z,38.00
2018-04-09T09:39:13.290Z,37.27
2018-04-09T09:41:40.891Z,35.70
2018-04-09T09:44:08.501Z,39.00
2018-04-09T09:46:36.884Z,35.50
2018-04-09T09:49:04.470Z,37.97
2018-04-09T09:51:33.392Z,38.73
2018-04-09T09:54:01.022Z,38.50
2018-04-09T09:56:28.628Z,40.17
2018-04-09T09:58:56.213Z,40.27
2018-04-09T10:01:27.743Z,38.60
2018-04-09T10:03:55.366Z,39.10
2018-04-09T10:06:30.140Z,39.23
2018-04-09T10:09:03.471Z,39.47
2018-04-09T10:11:35.913Z,38.60
2018-04-09T10:14:09.591Z,38.10
2018-04-09T10:16:43.147Z,38.97
2018-04-09T10:19:16.658Z,36.57
2018-04-09T10:21:51.098Z,41.80
2018-04-09T10:24:19.573Z,40.10
2018-04-09T10:26:47.223Z,41.47
2018-04-09T10:29:14.832Z,40.40
2018-04-09T10:31:42.430Z,39.37
2018-04-09T10:34:10.088Z,37.57
2018-04-09T10:36:37.719Z,40.03
2018-04-09T10:39:06.264Z,40.60
2018-04-09T10:41:33.880Z,38.70
2018-04-09T10:44:01.476Z,40.47
2018-04-09T10:46:29.129Z,40.40
2018-04-09T10:48:57.531Z,39.80
2018-04-09T10:51:25.190Z,39.90
2018-04-09T10:53:52.788Z,39.47
2018-04-09T10:56:20.458Z,40.53
2018-04-09T10:58:48.083Z,39.03
2018-04-09T11:01:15.701Z,36.97
2018-04-09T11:03:43.281Z,38.13
2018-04-09T11:06:10.862Z,38.53
2018-04-09T11:08:38.517Z,40.60
2018-04-09T11:11:06.136Z,38.47
2018-04-09T11:13:33.815Z,41.07
2018-04-09T11:16:01.435Z,40.17
2018-04-09T11:18:29.069Z,39.90
2018-04-09T11:20:56.692Z,36.10
2018-04-09T11:23:24.363Z,37.60
2018-04-09T11:25:52.016Z,36.63
2018-04-09T11:28:19.658Z,37.93
2018-04-09T11:30:47.268Z,40.47
2018-04-09T11:33:14.887Z,41.73
2018-04-09T11:35:42.507Z,39.33
2018-04-09T11:38:10.137Z,37.90
2018-04-09T11:40:37.769Z,39.03
2018-04-09T11:43:05.408Z,40.63
2018-04-09T11:45:33.041Z,39.83
2018-04-09T11:48:01.426Z,42.60
2018-04-09T11:50:29.845Z,39.73
2018-04-09T11:52:57.464Z,38.70
2018-04-09T11:55:25.088Z,36.13
2018-04-09T12:00:19.444Z,38.53
2018-04-09T12:02:47.069Z,37.80
2018-04-09T12:05:14.668Z,38.80
2018-04-09T12:07:42.313Z,39.93
2018-04-09T12:10:09.974Z,39.40
2018-04-09T12:12:37.603Z,32.80
2018-04-09T12:15:05.211Z,37.57
2018-04-09T12:17:32.809Z,38.13
2018-04-09T12:20:00.457Z,40.53
2018-04-09T12:22:28.104Z,40.37
2018-04-09T12:24:55.721Z,37.97
2018-04-09T12:27:23.349Z,43.00
2018-04-09T12:29:50.937Z,39.70
2018-04-09T12:32:18.884Z,40.17
2018-04-09T12:34:46.501Z,39.37
2018-04-09T12:37:14.088Z,38.77
2018-04-09T12:39:41.702Z,35.57
2018-04-09T12:42:09.303Z,39.97
2018-04-09T12:44:36.937Z,41.50
2018-04-09T12:47:04.552Z,40.10
2018-04-09T12:49:32.172Z,41.30
2018-04-09T12:51:59.790Z,41.43
2018-04-09T12:54:27.425Z,38.57
2018-04-09T12:56:55.097Z,38.47
2018-04-09T12:59:22.687Z,40.23
2018-04-09T13:01:50.457Z,35.43
2018-04-09T13:04:18.073Z,40.27
2018-04-09T13:06:45.664Z,38.87
2018-04-09T13:09:13.276Z,37.47
2018-04-09T13:11:40.873Z,37.40
2018-04-09T13:14:08.501Z,35.80
2018-04-09T13:16:36.111Z,36.90
2018-04-09T13:19:03.715Z,36.80
2018-04-09T13:21:31.316Z,39.70
2018-04-09T13:23:58.900Z,36.83
2018-04-09T13:26:26.898Z,37.33
2018-04-09T13:28:54.524Z,38.23
2018-04-09T13:31:22.154Z,38.23
2018-04-09T13:33:50.508Z,34.43
2018-04-09T13:36:18.148Z,37.43
2018-04-09T13:38:45.776Z,35.67
2018-04-09T13:41:13.365Z,35.77
2018-04-09T13:43:41.026Z,35.30
2018-04-09T13:46:08.610Z,33.57
2018-04-09T13:48:36.217Z,31.60
2018-04-09T13:51:03.812Z,34.43
2018-04-09T13:53:31.412Z,35.37
2018-04-09T13:55:59.031Z,34.67
2018-04-09T13:58:26.672Z,31.00
2018-04-09T14:00:54.288Z,36.13
2018-04-09T14:03:21.915Z,34.63
2018-04-09T14:05:49.538Z,32.37
2018-04-09T14:08:17.924Z,34.40
2018-04-09T14:10:46.309Z,34.90
2018-04-09T14:13:13.923Z,32.97
2018-04-09T14:15:41.555Z,33.00
2018-04-09T14:18:09.206Z,33.30
2018-04-09T14:20:36.798Z,30.73
2018-04-09T14:23:04.406Z,28.23
2018-04-09T14:25:32.139Z,25.13
2018-04-09T14:27:59.833Z,30.93
2018-04-09T14:30:27.484Z,29.90
2018-04-09T14:32:55.848Z,28.73
2018-04-09T14:35:23.464Z,27.93
2018-04-09T14:37:51.061Z,28.20
2018-04-09T14:40:18.653Z,28.00
2018-04-09T14:42:47.017Z,26.10
2018-04-09T14:45:14.637Z,25.90
2018-04-09T14:47:42.321Z,25.67
2018-04-09T14:50:09.970Z,26.30
2018-04-09T14:52:37.627Z,30.70
2018-04-09T14:55:05.236Z,26.33
2018-04-09T14:57:32.885Z,26.50
2018-04-09T15:00:00.529Z,31.75
2018-04-09T15:02:28.127Z,27.50
2018-04-09T15:04:55.786Z,29.63
2018-04-09T15:07:23.432Z,27.02
2018-04-09T15:09:51.016Z,27.98
2018-04-09T15:12:18.672Z,31.00
2018-04-09T15:14:46.261Z,31.23
2018-04-09T15:17:13.889Z,28.02
2018-04-09T15:19:41.489Z,30.73
2018-04-09T15:22:09.171Z,30.30
2018-04-09T15:24:36.809Z,29.50
2018-04-09T15:27:04.464Z,25.30
2018-04-09T15:29:32.170Z,27.25
2018-04-09T15:31:59.784Z,30.98
2018-04-09T15:34:28.140Z,28.67
2018-04-09T15:36:55.796Z,31.15
2018-04-09T15:39:23.417Z,31.07
2018-04-09T15:41:51.039Z,30.57
2018-04-09T15:44:18.663Z,29.03
2018-04-09T15:46:46.247Z,31.83
2018-04-09T15:49:13.860Z,30.03
2018-04-09T15:51:41.434Z,32.27
2018-04-09T15:54:09.019Z,31.00
2018-04-09T15:56:36.674Z,32.30
2018-04-09T15:59:04.263Z,31.30
2018-04-09T16:01:31.880Z,31.80
2018-04-09T16:03:59.460Z,27.53
2018-04-09T16:06:27.066Z,26.67
2018-04-09T16:08:54.707Z,32.97
2018-04-09T16:11:22.372Z,31.00
2018-04-09T16:13:49.951Z,32.83
2018-04-09T16:16:17.526Z,30.73
2018-04-09T16:18:45.138Z,31.47
2018-04-09T16:21:12.741Z,31.93
2018-04-09T16:23:40.444Z,31.43
2018-04-09T16:26:08.092Z,32.80
2018-04-09T16:28:35.704Z,32.60
2018-04-09T16:31:03.324Z,31.83
2018-04-09T16:33:30.925Z,31.50
2018-04-09T16:35:58.578Z,31.70
2018-04-09T16:38:26.189Z,32.17
2018-04-09T16:40:53.862Z,29.57
2018-04-09T16:43:21.466Z,27.27
2018-04-09T16:45:49.094Z,30.77
2018-04-09T16:48:16.698Z,30.93
2018-04-09T16:50:44.683Z,26.67
2018-04-09T16:53:12.291Z,32.17
2018-04-09T16:55:39.891Z,27.00
2018-04-09T16:58:07.556Z,26.33
2018-04-09T17:00:35.180Z,26.17
2018-04-09T17:03:02.793Z,29.07
2018-04-09T17:05:30.445Z,29.73
2018-04-09T17:07:58.087Z,25.10
2018-04-09T17:10:26.492Z,23.80
2018-04-09T17:12:54.101Z,24.73
2018-04-09T17:15:21.715Z,23.63
2018-04-09T17:17:49.362Z,21.87
2018-04-09T17:20:17.028Z,22.73
2018-04-09T17:22:44.632Z,20.67
2018-04-09T17:25:13.078Z,21.13
2018-04-09T17:27:40.721Z,21.77
2018-04-09T17:30:08.424Z,18.17
2018-04-09T17:32:36.069Z,20.13
2018-04-09T17:35:03.666Z,20.40
2018-04-09T17:37:31.269Z,19.03
2018-04-09T17:39:58.869Z,20.17
2018-04-09T17:42:26.502Z,23.67
2018-04-09T17:44:54.096Z,21.67
2018-04-09T17:47:21.718Z,20.50
2018-04-09T17:49:49.319Z,22.47
2018-04-09T17:52:16.938Z,20.40
2018-04-09T17:54:44.612Z,23.33
2018-04-09T17:57:13.033Z,18.90
2018-04-09T17:59:41.525Z,21.30
2018-04-09T18:02:09.932Z,20.70
2018-04-09T18:04:39.851Z,19.57
2018-04-09T18:07:12.801Z,18.90
2018-04-09T18:09:45.451Z,19.70
2018-04-09T18:12:19.834Z,21.60
2018-04-09T18:14:53.134Z,19.67
2018-04-09T18:17:26.764Z,21.13
2018-04-09T18:20:01.469Z,20.73
2018-04-09T18:22:30.280Z,19.40
2018-04-09T18:24:57.916Z,21.60
2018-04-09T18:27:25.532Z,21.60
2018-04-09T18:29:53.285Z,22.20
2018-04-09T18:32:20.895Z,25.80
2018-04-09T18:34:48.536Z,24.83
2018-04-09T18:37:16.896Z,22.60
2018-04-09T18:39:44.515Z,21.30
2018-04-09T18:42:12.143Z,20.80
2018-04-09T18:44:40.533Z,19.87
2018-04-09T18:47:08.970Z,18.63
2018-04-09T18:49:36.587Z,20.00
2018-04-09T18:52:04.176Z,20.90
2018-04-09T18:54:31.768Z,20.13
2018-04-09T18:56:59.414Z,20.57
2018-04-09T18:59:27.038Z,20.50
2018-04-09T19:01:54.634Z,20.63
2018-04-09T19:04:22.252Z,18.90
2018-04-09T19:06:49.865Z,20.30
2018-04-09T19:09:17.505Z,19.17
2018-04-09T19:11:45.164Z,20.60
2018-04-09T19:14:12.756Z,17.90
2018-04-09T19:16:40.373Z,18.50
2018-04-09T19:19:07.972Z,18.93
2018-04-09T19:21:35.583Z,17.50
2018-04-09T19:24:03.433Z,19.33
2018-04-09T19:26:31.086Z,17.33
2018-04-09T19:28:58.689Z,17.70
2018-04-09T19:31:26.285Z,17.97
2018-04-09T19:33:53.951Z,18.43
2018-04-09T19:36:27.120Z,19.43
2018-04-09T19:39:00.380Z,18.37
2018-04-09T19:41:46.131Z,19.80
2018-04-09T19:44:31.217Z,20.30
2018-04-09T19:46:58.812Z,18.83
2018-04-09T19:49:26.461Z,17.73
2018-04-09T19:51:54.065Z,20.10
2018-04-09T19:54:21.721Z,19.87
2018-04-09T19:56:49.345Z,19.70
2018-04-09T19:59:17.737Z,18.47
2018-04-09T20:01:45.330Z,19.47
2018-04-09T20:04:12.922Z,19.57
2018-04-09T20:06:40.541Z,19.93
2018-04-09T20:09:08.190Z,19.77
2018-04-09T20:11:35.818Z,19.83
2018-04-09T20:14:03.494Z,19.17
2018-04-09T20:16:31.095Z,20.93
2018-04-09T20:18:58.759Z,19.77
2018-04-09T20:21:26.422Z,20.03
2018-04-09T20:23:54.039Z,20.67
2018-04-09T20:26:21.680Z,21.00
2018-04-09T20:28:49.287Z,19.57
2018-04-09T20:31:16.913Z,19.73
2018-04-09T20:33:44.514Z,20.57
2018-04-09T20:36:12.136Z,20.10
2018-04-09T20:38:39.727Z,21.73
2018-04-09T20:41:07.327Z,21.23
2018-04-09T20:43:34.929Z,21.50
2018-04-09T20:46:02.522Z,21.80
2018-04-09T20:48:30.178Z,20.13
2018-04-09T20:50:57.798Z,23.93
2018-04-09T20:53:25.405Z,20.80
2018-04-09T20:55:52.992Z,19.77
2018-04-09T20:58:20.589Z,21.80
2018-04-09T21:00:48.188Z,20.67
2018-04-09T21:03:15.808Z,23.10
2018-04-09T21:05:43.405Z,22.33
2018-04-09T21:08:11.767Z,23.90
2018-04-09T21:10:39.404Z,21.40
2018-04-09T21:13:07.019Z,23.60
2018-04-09T21:15:34.594Z,22.63
2018-04-09T21:18:02.189Z,23.97
2018-04-09T21:20:29.834Z,22.97
2018-04-09T21:22:57.484Z,21.77
2018-04-09T21:25:25.085Z,22.07
2018-04-09T21:27:52.717Z,22.10
2018-04-09T21:30:20.314Z,22.03
2018-04-09T21:32:47.913Z,21.73
2018-04-09T21:35:15.551Z,21.97
2018-04-09T21:37:43.149Z,24.10
2018-04-09T21:40:10.780Z,23.60
2018-04-09T21:42:38.359Z,24.77
2018-04-09T21:45:05.948Z,20.70
2018-04-09T21:47:33.584Z,23.83
2018-04-09T21:50:01.209Z,23.00
2018-04-09T21:52:28.809Z,22.60
2018-04-09T21:54:56.400Z,23.63
2018-04-09T21:57:24.026Z,23.60
2018-04-09T21:59:52.414Z,22.90
2018-04-09T22:02:20.005Z,24.17
2018-04-09T22:04:47.649Z,22.57
2018-04-09T22:07:15.362Z,23.93
2018-04-09T22:09:42.950Z,22.93
2018-04-09T22:12:10.629Z,24.57
2018-04-09T22:14:38.231Z,24.43
2018-04-09T22:17:05.836Z,23.47
2018-04-09T22:19:34.215Z,24.93
2018-04-09T22:22:02.606Z,25.00
2018-04-09T22:24:30.228Z,24.97
2018-04-09T22:26:57.825Z,23.97
2018-04-09T22:29:26.197Z,25.00
2018-04-09T22:31:54.615Z,22.77
2018-04-09T22:34:22.335Z,24.10
2018-04-09T22:36:50.721Z,24.97
2018-04-09T22:39:19.110Z,25.97
2018-04-09T22:41:47.468Z,23.20
2018-04-09T22:44:15.842Z,24.67
2018-04-09T22:46:43.480Z,25.33
2018-04-09T22:49:11.096Z,25.47
2018-04-09T22:51:38.773Z,23.47
2018-04-09T22:54:06.405Z,25.43
2018-04-09T22:56:34.041Z,25.00
2018-04-09T22:59:01.643Z,24.63
2018-04-09T23:01:29.256Z,26.27
2018-04-09T23:03:56.932Z,25.27
2018-04-09T23:06:24.526Z,26.07
2018-04-09T23:08:52.909Z,24.27
2018-04-09T23:11:21.312Z,24.10
2018-04-09T23:13:48.904Z,25.03
2018-04-09T23:16:16.524Z,24.60
2018-04-09T23:18:44.144Z,25.80
2018-04-09T23:21:11.727Z,23.27
2018-04-09T23:23:40.148Z,24.13
2018-04-09T23:26:07.741Z,26.40
2018-04-09T23:28:35.331Z,23.40
2018-04-09T23:31:03.713Z,24.27
2018-04-09T23:33:32.082Z,24.53
2018-04-09T23:36:00.497Z,23.77
2018-04-09T23:38:28.102Z,24.37
2018-04-09T23:40:55.688Z,24.70
2018-04-09T23:43:24.060Z,25.70
2018-04-09T23:45:51.683Z,24.10
2018-04-09T23:48:19.293Z,25.67
2018-04-09T23:50:47.672Z,23.40
2018-04-09T23:53:16.028Z,23.37
2018-04-09T23:55:43.636Z,24.07
2018-04-09T23:58:11.238Z,23.73
